sensor_id;sensor_type;location;lat;lon;timestamp;pressure;altitude;pressure_sealevel;temperature;humidity
8573;BME280;4324;42.012;24.872;2022-07-06T00:00:52;98770.81;;;24.99;51.38
8573;BME280;4324;42.012;24.872;2022-07-06T00:03:19;98778.69;;;25.00;50.98
8573;BME280;4324;42.012;24.872;2022-07-06T00:05:46;98781.41;;;25.00;51.22
8573;BME280;4324;42.012;24.872;2022-07-06T00:08:13;98781.94;;;25.02;51.18
8573;BME280;4324;42.012;24.872;2022-07-06T00:10:41;98771.66;;;24.99;51.36
8573;BME280;4324;42.012;24.872;2022-07-06T00:13:09;98777.09;;;25.09;51.53
8573;BME280;4324;42.012;24.872;2022-07-06T00:15:36;98769.03;;;25.15;51.09
8573;BME280;4324;42.012;24.872;2022-07-06T00:18:03;98762.53;;;25.21;51.02
8573;BME280;4324;42.012;24.872;2022-07-06T00:20:30;98763.59;;;25.25;51.18
8573;BME280;4324;42.012;24.872;2022-07-06T00:22:57;98761.22;;;25.33;51.22
8573;BME280;4324;42.012;24.872;2022-07-06T00:25:24;98757.16;;;25.41;50.85
8573;BME280;4324;42.012;24.872;2022-07-06T00:27:52;98751.75;;;25.51;50.87
8573;BME280;4324;42.012;24.872;2022-07-06T00:30:19;98746.84;;;25.58;50.85
8573;BME280;4324;42.012;24.872;2022-07-06T00:32:46;98741.44;;;25.58;50.70
8573;BME280;4324;42.012;24.872;2022-07-06T00:35:13;98740.91;;;25.67;50.68
8573;BME280;4324;42.012;24.872;2022-07-06T00:37:40;98740.38;;;25.70;50.71
8573;BME280;4324;42.012;24.872;2022-07-06T00:40:08;98718.13;;;25.73;50.24
8573;BME280;4324;42.012;24.872;2022-07-06T00:42:43;98730.06;;;25.87;50.33
8573;BME280;4324;42.012;24.872;2022-07-06T00:45:13;98726.84;;;25.85;50.18
8573;BME280;4324;42.012;24.872;2022-07-06T00:47:41;98732.78;;;25.87;50.36
8573;BME280;4324;42.012;24.872;2022-07-06T00:50:09;98719.22;;;25.87;50.53
8573;BME280;4324;42.012;24.872;2022-07-06T00:52:48;98708.91;;;25.84;50.36
8573;BME280;4324;42.012;24.872;2022-07-06T00:55:17;98719.25;;;25.92;50.36
8573;BME280;4324;42.012;24.872;2022-07-06T00:57:44;98715.97;;;25.90;50.23
8573;BME280;4324;42.012;24.872;2022-07-06T01:00:15;98714.59;;;25.98;49.90
8573;BME280;4324;42.012;24.872;2022-07-06T01:02:43;98713.78;;;26.02;49.97
8573;BME280;4324;42.012;24.872;2022-07-06T01:05:11;98703.50;;;25.99;49.87
8573;BME280;4324;42.012;24.872;2022-07-06T01:07:40;98712.16;;;26.01;50.23
8573;BME280;4324;42.012;24.872;2022-07-06T01:10:10;98694.28;;;25.90;49.90
8573;BME280;4324;42.012;24.872;2022-07-06T01:12:39;98695.88;;;25.91;50.26
8573;BME280;4324;42.012;24.872;2022-07-06T01:15:07;98687.78;;;25.86;50.20
8573;BME280;4324;42.012;24.872;2022-07-06T01:17:38;98683.94;;;25.77;50.11
8573;BME280;4324;42.012;24.872;2022-07-06T01:20:10;98684.50;;;25.69;50.28
8573;BME280;4324;42.012;24.872;2022-07-06T01:22:37;98678.00;;;25.65;50.69
8573;BME280;4324;42.012;24.872;2022-07-06T01:25:05;98679.09;;;25.53;50.72
8573;BME280;4324;42.012;24.872;2022-07-06T01:27:33;98608.63;;;25.13;50.99
8573;BME280;4324;42.012;24.872;2022-07-06T01:30:04;98664.72;;;25.48;50.93
8573;BME280;4324;42.012;24.872;2022-07-06T01:32:31;98651.44;;;25.41;50.75
8573;BME280;4324;42.012;24.872;2022-07-06T01:34:59;98641.16;;;25.33;51.03
8573;BME280;4324;42.012;24.872;2022-07-06T01:37:27;98645.50;;;25.29;51.23
8573;BME280;4324;42.012;24.872;2022-07-06T01:39:58;98633.00;;;25.18;51.46
8573;BME280;4324;42.012;24.872;2022-07-06T01:42:25;98645.75;;;25.12;51.66
8573;BME280;4324;42.012;24.872;2022-07-06T01:44:52;98640.03;;;25.03;51.79
8573;BME280;4324;42.012;24.872;2022-07-06T01:47:19;98651.94;;;25.07;51.52
8573;BME280;4324;42.012;24.872;2022-07-06T01:49:46;98651.38;;;25.05;51.83
8573;BME280;4324;42.012;24.872;2022-07-06T01:52:13;98637.28;;;24.98;51.84
8573;BME280;4324;42.012;24.872;2022-07-06T01:54:42;98637.56;;;25.02;51.70
8573;BME280;4324;42.012;24.872;2022-07-06T01:57:09;98634.34;;;25.00;51.96
8573;BME280;4324;42.012;24.872;2022-07-06T01:59:36;98630.25;;;24.97;51.60
8573;BME280;4324;42.012;24.872;2022-07-06T02:02:03;98625.41;;;24.99;51.88
8573;BME280;4324;42.012;24.872;2022-07-06T02:04:30;98621.84;;;24.94;51.69
8573;BME280;4324;42.012;24.872;2022-07-06T02:06:57;98618.34;;;24.93;51.79
8573;BME280;4324;42.012;24.872;2022-07-06T02:09:24;98621.03;;;24.93;51.95
8573;BME280;4324;42.012;24.872;2022-07-06T02:11:52;98611.00;;;24.83;52.21
8573;BME280;4324;42.012;24.872;2022-07-06T02:14:20;98605.88;;;24.82;52.19
8573;BME280;4324;42.012;24.872;2022-07-06T02:16:46;98608.81;;;24.75;52.80
8573;BME280;4324;42.012;24.872;2022-07-06T02:19:13;98596.09;;;24.71;52.69
8573;BME280;4324;42.012;24.872;2022-07-06T02:21:40;98605.31;;;24.70;52.56
8573;BME280;4324;42.012;24.872;2022-07-06T02:24:07;98608.81;;;24.70;52.74
8573;BME280;4324;42.012;24.872;2022-07-06T02:26:34;98612.34;;;24.71;52.77
8573;BME280;4324;42.012;24.872;2022-07-06T02:29:03;98600.69;;;24.65;52.96
8573;BME280;4324;42.012;24.872;2022-07-06T02:31:29;98609.59;;;24.66;52.77
8573;BME280;4324;42.012;24.872;2022-07-06T02:33:56;98604.75;;;24.62;53.01
8573;BME280;4324;42.012;24.872;2022-07-06T02:36:23;98583.59;;;24.49;53.25
8573;BME280;4324;42.012;24.872;2022-07-06T02:38:50;98592.28;;;24.56;53.05
8573;BME280;4324;42.012;24.872;2022-07-06T02:41:17;98592.56;;;24.55;53.23
8573;BME280;4324;42.012;24.872;2022-07-06T02:43:44;98598.78;;;24.55;53.06
8573;BME280;4324;42.012;24.872;2022-07-06T02:46:13;98608.50;;;24.51;53.12
8573;BME280;4324;42.012;24.872;2022-07-06T02:48:39;98597.13;;;24.44;53.55
8573;BME280;4324;42.012;24.872;2022-07-06T02:51:07;98601.97;;;24.47;53.25
8573;BME280;4324;42.012;24.872;2022-07-06T02:53:34;98599.56;;;24.46;53.46
8573;BME280;4324;42.012;24.872;2022-07-06T02:56:01;98600.34;;;24.41;53.77
8573;BME280;4324;42.012;24.872;2022-07-06T02:58:28;98597.34;;;24.37;53.88
8573;BME280;4324;42.012;24.872;2022-07-06T03:00:55;98614.69;;;24.42;54.00
8573;BME280;4324;42.012;24.872;2022-07-06T03:03:23;98621.44;;;24.39;53.50
8573;BME280;4324;42.012;24.872;2022-07-06T03:05:50;98606.25;;;24.33;53.73
8573;BME280;4324;42.012;24.872;2022-07-06T03:08:17;98620.91;;;24.42;53.94
8573;BME280;4324;42.012;24.872;2022-07-06T03:10:44;98619.03;;;24.43;54.04
8573;BME280;4324;42.012;24.872;2022-07-06T03:13:11;98619.81;;;24.43;53.97
8573;BME280;4324;42.012;24.872;2022-07-06T03:15:38;98615.78;;;24.41;54.09
8573;BME280;4324;42.012;24.872;2022-07-06T03:18:05;98615.19;;;24.38;54.03
8573;BME280;4324;42.012;24.872;2022-07-06T03:20:33;98630.13;;;24.41;53.98
8573;BME280;4324;42.012;24.872;2022-07-06T03:23:00;98625.47;;;24.36;53.92
8573;BME280;4324;42.012;24.872;2022-07-06T03:25:27;98635.47;;;24.36;54.25
8573;BME280;4324;42.012;24.872;2022-07-06T03:27:54;98634.94;;;24.34;54.10
8573;BME280;4324;42.012;24.872;2022-07-06T03:30:21;98635.47;;;24.36;54.42
8573;BME280;4324;42.012;24.872;2022-07-06T03:32:48;98630.66;;;24.43;54.41
8573;BME280;4324;42.012;24.872;2022-07-06T03:35:15;98619.28;;;24.41;54.44
8573;BME280;4324;42.012;24.872;2022-07-06T03:37:43;98630.13;;;24.46;54.55
8573;BME280;4324;42.012;24.872;2022-07-06T03:40:11;98632.31;;;24.49;54.38
8573;BME280;4324;42.012;24.872;2022-07-06T03:42:39;98624.72;;;24.46;54.55
8573;BME280;4324;42.012;24.872;2022-07-06T03:45:07;98639.09;;;24.57;54.32
8573;BME280;4324;42.012;24.872;2022-07-06T03:47:34;98652.91;;;24.66;54.35
8573;BME280;4324;42.012;24.872;2022-07-06T03:50:01;98649.44;;;24.70;54.24
8573;BME280;4324;42.012;24.872;2022-07-06T03:52:28;98642.69;;;24.78;54.38
8573;BME280;4324;42.012;24.872;2022-07-06T03:54:56;98650.00;;;24.77;54.04
8573;BME280;4324;42.012;24.872;2022-07-06T03:57:23;98655.13;;;24.84;53.81
8573;BME280;4324;42.012;24.872;2022-07-06T03:59:51;98644.31;;;24.84;53.83
8573;BME280;4324;42.012;24.872;2022-07-06T04:02:18;98645.94;;;24.90;53.73
8573;BME280;4324;42.012;24.872;2022-07-06T04:04:45;98647.31;;;24.98;53.90
8573;BME280;4324;42.012;24.872;2022-07-06T04:07:12;98662.28;;;25.10;53.45
8573;BME280;4324;42.012;24.872;2022-07-06T04:09:40;98651.72;;;25.19;53.51
8573;BME280;4324;42.012;24.872;2022-07-06T04:12:09;98644.66;;;25.23;53.20
8573;BME280;4324;42.012;24.872;2022-07-06T04:14:36;98649.81;;;25.35;53.28
8573;BME280;4324;42.012;24.872;2022-07-06T04:17:03;98657.41;;;25.43;53.26
8573;BME280;4324;42.012;24.872;2022-07-06T04:19:52;98655.50;;;25.44;53.14
8573;BME280;4324;42.012;24.872;2022-07-06T04:22:19;98665.00;;;25.46;53.22
8573;BME280;4324;42.012;24.872;2022-07-06T04:24:46;98651.19;;;25.48;53.24
8573;BME280;4324;42.012;24.872;2022-07-06T04:27:15;98664.44;;;25.65;52.98
8573;BME280;4324;42.012;24.872;2022-07-06T04:29:42;98660.09;;;25.69;52.92
8573;BME280;4324;42.012;24.872;2022-07-06T04:32:09;98649.25;;;25.69;52.80
8573;BME280;4324;42.012;24.872;2022-07-06T04:34:36;98666.88;;;25.97;52.56
8573;BME280;4324;42.012;24.872;2022-07-06T04:37:03;98670.91;;;26.04;52.58
8573;BME280;4324;42.012;24.872;2022-07-06T04:39:30;98667.38;;;26.14;52.21
8573;BME280;4324;42.012;24.872;2022-07-06T04:41:57;98674.09;;;26.27;52.08
8573;BME280;4324;42.012;24.872;2022-07-06T04:44:26;98668.66;;;26.32;51.94
8573;BME280;4324;42.012;24.872;2022-07-06T04:46:55;98666.75;;;26.48;51.73
8573;BME280;4324;42.012;24.872;2022-07-06T04:49:22;98667.75;;;26.62;51.54
8573;BME280;4324;42.012;24.872;2022-07-06T04:51:49;98667.66;;;26.83;51.14
8573;BME280;4324;42.012;24.872;2022-07-06T04:54:16;98661.59;;;26.96;51.21
8573;BME280;4324;42.012;24.872;2022-07-06T04:56:43;98656.31;;;27.10;50.90
8573;BME280;4324;42.012;24.872;2022-07-06T04:59:12;98658.97;;;27.25;50.44
8573;BME280;4324;42.012;24.872;2022-07-06T05:01:40;98659.13;;;27.39;50.38
8573;BME280;4324;42.012;24.872;2022-07-06T05:04:08;98661.44;;;27.56;50.14
8573;BME280;4324;42.012;24.872;2022-07-06T05:06:35;98651.31;;;27.61;50.13
8573;BME280;4324;42.012;24.872;2022-07-06T05:09:02;98665.09;;;27.70;50.14
8573;BME280;4324;42.012;24.872;2022-07-06T05:11:29;98655.38;;;27.64;49.52
8573;BME280;4324;42.012;24.872;2022-07-06T05:13:56;98675.97;;;27.70;49.80
8573;BME280;4324;42.012;24.872;2022-07-06T05:16:23;98670.34;;;27.66;49.88
8573;BME280;4324;42.012;24.872;2022-07-06T05:18:52;98647.88;;;27.50;49.81
8573;BME280;4324;42.012;24.872;2022-07-06T05:21:19;98672.28;;;27.61;49.74
8573;BME280;4324;42.012;24.872;2022-07-06T05:23:45;98671.72;;;27.59;49.95
8573;BME280;4324;42.012;24.872;2022-07-06T05:26:13;98668.44;;;27.62;49.82
8573;BME280;4324;42.012;24.872;2022-07-06T05:28:40;98670.84;;;27.68;49.76
8573;BME280;4324;42.012;24.872;2022-07-06T05:31:07;98672.41;;;27.80;49.54
8573;BME280;4324;42.012;24.872;2022-07-06T05:33:33;98679.09;;;27.92;49.47
8573;BME280;4324;42.012;24.872;2022-07-06T05:36:02;98673.06;;;27.95;49.48
8573;BME280;4324;42.012;24.872;2022-07-06T05:38:29;98684.13;;;28.04;49.37
8573;BME280;4324;42.012;24.872;2022-07-06T05:40:56;98677.25;;;28.12;49.37
8573;BME280;4324;42.012;24.872;2022-07-06T05:43:23;98678.53;;;28.19;49.20
8573;BME280;4324;42.012;24.872;2022-07-06T05:45:50;98686.28;;;28.31;49.23
8573;BME280;4324;42.012;24.872;2022-07-06T05:48:17;98680.53;;;28.38;49.01
8573;BME280;4324;42.012;24.872;2022-07-06T05:51:03;98693.03;;;28.39;49.07
8573;BME280;4324;42.012;24.872;2022-07-06T05:53:30;98685.16;;;28.37;48.97
8573;BME280;4324;42.012;24.872;2022-07-06T05:55:57;98687.31;;;28.35;49.15
8573;BME280;4324;42.012;24.872;2022-07-06T05:58:24;98691.41;;;28.38;49.20
8573;BME280;4324;42.012;24.872;2022-07-06T06:00:51;98696.28;;;28.41;49.13
8573;BME280;4324;42.012;24.872;2022-07-06T06:03:17;98703.00;;;28.49;49.19
8573;BME280;4324;42.012;24.872;2022-07-06T06:05:45;98701.81;;;28.55;49.02
8573;BME280;4324;42.012;24.872;2022-07-06T06:08:13;98712.66;;;28.60;48.82
8573;BME280;4324;42.012;24.872;2022-07-06T06:10:40;98696.81;;;28.62;48.80
8573;BME280;4324;42.012;24.872;2022-07-06T06:13:07;98701.63;;;28.70;48.70
8573;BME280;4324;42.012;24.872;2022-07-06T06:15:34;98695.09;;;28.71;48.79
8573;BME280;4324;42.012;24.872;2022-07-06T06:18:02;98696.13;;;28.75;48.72
8573;BME280;4324;42.012;24.872;2022-07-06T06:20:29;98700.41;;;28.81;48.90
8573;BME280;4324;42.012;24.872;2022-07-06T06:22:57;98700.25;;;28.91;48.96
8573;BME280;4324;42.012;24.872;2022-07-06T06:25:30;98695.56;;;28.97;48.83
8573;BME280;4324;42.012;24.872;2022-07-06T06:27:57;98700.59;;;29.09;48.88
8573;BME280;4324;42.012;24.872;2022-07-06T06:30:24;98703.72;;;28.97;48.73
8573;BME280;4324;42.012;24.872;2022-07-06T06:32:52;98696.34;;;28.79;48.67
8573;BME280;4324;42.012;24.872;2022-07-06T06:35:18;98698.28;;;28.54;48.94
8573;BME280;4324;42.012;24.872;2022-07-06T06:37:46;98705.28;;;28.36;49.85
8573;BME280;4324;42.012;24.872;2022-07-06T06:40:13;98701.75;;;28.12;50.30
8573;BME280;4324;42.012;24.872;2022-07-06T06:42:42;98708.31;;;28.06;50.20
8573;BME280;4324;42.012;24.872;2022-07-06T06:45:09;98718.72;;;28.04;50.68
8573;BME280;4324;42.012;24.872;2022-07-06T06:47:36;98709.28;;;27.91;50.76
8573;BME280;4324;42.012;24.872;2022-07-06T06:50:04;98706.25;;;27.97;50.74
8573;BME280;4324;42.012;24.872;2022-07-06T06:52:31;98696.69;;;28.00;50.79
8573;BME280;4324;42.012;24.872;2022-07-06T06:54:58;98709.69;;;28.08;51.04
8573;BME280;4324;42.012;24.872;2022-07-06T06:57:25;98726.75;;;28.14;50.35
8573;BME280;4324;42.012;24.872;2022-07-06T06:59:56;98720.25;;;28.10;50.53
8573;BME280;4324;42.012;24.872;2022-07-06T07:02:23;98716.47;;;28.11;50.57
8573;BME280;4324;42.012;24.872;2022-07-06T07:04:50;98709.28;;;28.20;50.25
8573;BME280;4324;42.012;24.872;2022-07-06T07:07:17;98708.13;;;28.26;50.29
8573;BME280;4324;42.012;24.872;2022-07-06T07:09:44;98709.69;;;28.32;49.94
8573;BME280;4324;42.012;24.872;2022-07-06T07:12:10;98647.97;;;27.98;50.03
8573;BME280;4324;42.012;24.872;2022-07-06T07:14:37;98716.16;;;28.41;49.21
8573;BME280;4324;42.012;24.872;2022-07-06T07:17:06;98704.91;;;28.48;49.05
8573;BME280;4324;42.012;24.872;2022-07-06T07:19:33;98711.31;;;28.57;49.15
8573;BME280;4324;42.012;24.872;2022-07-06T07:22:00;98708.91;;;28.56;48.93
8573;BME280;4324;42.012;24.872;2022-07-06T07:24:27;98713.66;;;28.45;49.30
8573;BME280;4324;42.012;24.872;2022-07-06T07:26:54;98704.06;;;28.48;49.35
8573;BME280;4324;42.012;24.872;2022-07-06T07:29:21;98714.28;;;28.61;49.44
8573;BME280;4324;42.012;24.872;2022-07-06T07:31:48;98698.91;;;28.70;49.17
8573;BME280;4324;42.012;24.872;2022-07-06T07:34:17;98688.97;;;28.79;49.06
8573;BME280;4324;42.012;24.872;2022-07-06T07:36:44;98696.34;;;28.98;48.75
8573;BME280;4324;42.012;24.872;2022-07-06T07:39:11;98689.53;;;29.19;48.40
8573;BME280;4324;42.012;24.872;2022-07-06T07:41:38;98690.09;;;29.35;47.22
8573;BME280;4324;42.012;24.872;2022-07-06T07:44:04;98699.31;;;29.39;46.74
8573;BME280;4324;42.012;24.872;2022-07-06T07:46:33;98669.88;;;29.22;46.87
8573;BME280;4324;42.012;24.872;2022-07-06T07:49:00;98682.72;;;29.35;47.02
8573;BME280;4324;42.012;24.872;2022-07-06T07:51:28;98680.00;;;29.35;47.12
8573;BME280;4324;42.012;24.872;2022-07-06T07:53:55;98681.63;;;29.36;47.05
8573;BME280;4324;42.012;24.872;2022-07-06T07:56:22;98699.09;;;29.35;46.98
8573;BME280;4324;42.012;24.872;2022-07-06T07:58:49;98703.22;;;29.14;46.87
8573;BME280;4324;42.012;24.872;2022-07-06T08:01:16;98692.81;;;28.97;46.96
8573;BME280;4324;42.012;24.872;2022-07-06T08:03:43;98708.97;;;28.93;47.33
8573;BME280;4324;42.012;24.872;2022-07-06T08:06:10;98697.53;;;28.91;47.66
8573;BME280;4324;42.012;24.872;2022-07-06T08:08:39;98691.44;;;29.00;47.07
8573;BME280;4324;42.012;24.872;2022-07-06T08:11:06;98686.88;;;29.14;47.22
8573;BME280;4324;42.012;24.872;2022-07-06T08:13:33;98694.06;;;29.42;46.79
8573;BME280;4324;42.012;24.872;2022-07-06T08:16:00;98687.88;;;29.56;46.17
8573;BME280;4324;42.012;24.872;2022-07-06T08:18:27;98698.63;;;29.66;45.77
8573;BME280;4324;42.012;24.872;2022-07-06T08:20:54;98693.69;;;29.49;46.40
8573;BME280;4324;42.012;24.872;2022-07-06T08:23:22;98705.94;;;29.33;46.27
8573;BME280;4324;42.012;24.872;2022-07-06T08:25:50;98690.47;;;29.28;46.15
8573;BME280;4324;42.012;24.872;2022-07-06T08:28:17;98689.59;;;29.33;46.54
8573;BME280;4324;42.012;24.872;2022-07-06T08:30:47;98699.53;;;29.42;46.83
8573;BME280;4324;42.012;24.872;2022-07-06T08:33:14;98692.31;;;29.52;46.71
8573;BME280;4324;42.012;24.872;2022-07-06T08:35:41;98683.47;;;29.60;46.41
8573;BME280;4324;42.012;24.872;2022-07-06T08:38:08;98682.69;;;29.73;46.22
8573;BME280;4324;42.012;24.872;2022-07-06T08:40:35;98684.53;;;29.92;45.79
8573;BME280;4324;42.012;24.872;2022-07-06T08:43:06;98686.34;;;29.96;44.98
8573;BME280;4324;42.012;24.872;2022-07-06T08:45:34;98681.00;;;29.91;44.85
8573;BME280;4324;42.012;24.872;2022-07-06T08:48:04;98681.69;;;29.83;44.65
8573;BME280;4324;42.012;24.872;2022-07-06T08:50:33;98680.09;;;29.82;44.16
8573;BME280;4324;42.012;24.872;2022-07-06T08:53:00;98681.88;;;29.73;44.51
8573;BME280;4324;42.012;24.872;2022-07-06T08:55:28;98687.53;;;29.76;44.32
8573;BME280;4324;42.012;24.872;2022-07-06T08:57:55;98691.44;;;29.89;44.23
8573;BME280;4324;42.012;24.872;2022-07-06T09:00:24;98694.06;;;29.94;44.47
8573;BME280;4324;42.012;24.872;2022-07-06T09:02:52;98691.81;;;29.96;44.58
8573;BME280;4324;42.012;24.872;2022-07-06T09:05:23;98660.19;;;29.81;44.42
8573;BME280;4324;42.012;24.872;2022-07-06T09:07:51;98698.53;;;30.04;44.11
8573;BME280;4324;42.012;24.872;2022-07-06T09:10:20;98700.94;;;30.05;43.86
8573;BME280;4324;42.012;24.872;2022-07-06T09:12:47;98704.16;;;29.94;44.04
8573;BME280;4324;42.012;24.872;2022-07-06T09:15:15;98697.97;;;29.88;44.22
8573;BME280;4324;42.012;24.872;2022-07-06T09:17:43;98691.94;;;30.05;44.15
8573;BME280;4324;42.012;24.872;2022-07-06T09:20:12;98705.94;;;30.17;44.06
8573;BME280;4324;42.012;24.872;2022-07-06T09:22:39;98708.66;;;30.17;43.82
8573;BME280;4324;42.012;24.872;2022-07-06T09:25:09;98699.34;;;30.18;43.93
8573;BME280;4324;42.012;24.872;2022-07-06T09:27:37;98711.41;;;30.31;43.85
8573;BME280;4324;42.012;24.872;2022-07-06T09:30:06;98704.81;;;30.32;43.93
8573;BME280;4324;42.012;24.872;2022-07-06T09:32:38;98712.75;;;30.33;44.24
8573;BME280;4324;42.012;24.872;2022-07-06T09:35:08;98706.16;;;30.34;44.30
8573;BME280;4324;42.012;24.872;2022-07-06T09:37:35;98695.03;;;30.45;44.20
8573;BME280;4324;42.012;24.872;2022-07-06T09:40:15;98692.38;;;30.53;44.03
8573;BME280;4324;42.012;24.872;2022-07-06T09:42:43;98687.03;;;30.48;44.28
8573;BME280;4324;42.012;24.872;2022-07-06T09:45:10;98696.25;;;30.52;44.14
8573;BME280;4324;42.012;24.872;2022-07-06T09:47:37;98683.78;;;30.60;44.42
8573;BME280;4324;42.012;24.872;2022-07-06T09:50:08;98683.53;;;30.70;44.63
8573;BME280;4324;42.012;24.872;2022-07-06T09:52:37;98686.59;;;30.82;45.31
8573;BME280;4324;42.012;24.872;2022-07-06T09:55:08;98689.22;;;30.88;44.85
8573;BME280;4324;42.012;24.872;2022-07-06T09:57:52;98687.19;;;30.93;44.85
8573;BME280;4324;42.012;24.872;2022-07-06T10:00:20;98696.09;;;30.99;44.49
8573;BME280;4324;42.012;24.872;2022-07-06T10:02:48;98681.81;;;30.88;44.14
8573;BME280;4324;42.012;24.872;2022-07-06T10:05:17;98659.88;;;30.66;44.43
8573;BME280;4324;42.012;24.872;2022-07-06T10:07:45;98684.97;;;30.81;45.26
8573;BME280;4324;42.012;24.872;2022-07-06T10:10:17;98686.41;;;30.93;44.89
8573;BME280;4324;42.012;24.872;2022-07-06T10:12:44;98680.00;;;30.97;43.68
8573;BME280;4324;42.012;24.872;2022-07-06T10:15:15;98673.72;;;30.97;42.96
8573;BME280;4324;42.012;24.872;2022-07-06T10:17:44;98674.44;;;30.89;43.20
8573;BME280;4324;42.012;24.872;2022-07-06T10:20:13;98667.66;;;30.72;44.00
8573;BME280;4324;42.012;24.872;2022-07-06T10:22:42;98669.41;;;30.68;43.35
8573;BME280;4324;42.012;24.872;2022-07-06T10:25:10;98677.06;;;30.66;43.24
8573;BME280;4324;42.012;24.872;2022-07-06T10:27:38;98674.25;;;30.71;43.40
8573;BME280;4324;42.012;24.872;2022-07-06T10:30:11;98668.47;;;30.73;43.87
8573;BME280;4324;42.012;24.872;2022-07-06T10:32:39;98661.31;;;30.77;43.29
8573;BME280;4324;42.012;24.872;2022-07-06T10:35:08;98663.59;;;30.97;42.23
8573;BME280;4324;42.012;24.872;2022-07-06T10:37:35;98660.63;;;31.07;42.11
8573;BME280;4324;42.012;24.872;2022-07-06T10:40:05;98647.47;;;30.96;42.92
8573;BME280;4324;42.012;24.872;2022-07-06T10:42:56;98651.94;;;30.92;44.14
8573;BME280;4324;42.012;24.872;2022-07-06T10:45:50;98655.78;;;31.04;43.85
8573;BME280;4324;42.012;24.872;2022-07-06T10:48:19;98636.69;;;31.13;43.73
8573;BME280;4324;42.012;24.872;2022-07-06T10:50:49;98643.38;;;31.07;44.02
8573;BME280;4324;42.012;24.872;2022-07-06T10:53:17;98641.63;;;30.89;44.42
8573;BME280;4324;42.012;24.872;2022-07-06T10:55:50;98641.88;;;30.78;44.52
8573;BME280;4324;42.012;24.872;2022-07-06T11:01:21;98638.50;;;30.81;45.03
8573;BME280;4324;42.012;24.872;2022-07-06T11:03:49;98637.78;;;30.90;45.11
8573;BME280;4324;42.012;24.872;2022-07-06T11:06:18;98636.72;;;30.99;44.70
8573;BME280;4324;42.012;24.872;2022-07-06T11:08:52;98634.72;;;31.27;44.61
8573;BME280;4324;42.012;24.872;2022-07-06T11:11:22;98620.41;;;31.53;44.43
8573;BME280;4324;42.012;24.872;2022-07-06T11:13:55;98616.47;;;31.68;44.02
8573;BME280;4324;42.012;24.872;2022-07-06T11:16:24;98621.78;;;31.73;43.78
8573;BME280;4324;42.012;24.872;2022-07-06T11:19:01;98613.56;;;31.64;43.69
8573;BME280;4324;42.012;24.872;2022-07-06T11:21:36;98612.16;;;31.75;44.05
8573;BME280;4324;42.012;24.872;2022-07-06T11:24:06;98614.22;;;32.01;43.69
8573;BME280;4324;42.012;24.872;2022-07-06T11:26:35;98610.88;;;32.13;42.96
8573;BME280;4324;42.012;24.872;2022-07-06T11:29:04;98597.00;;;32.09;42.85
8573;BME280;4324;42.012;24.872;2022-07-06T11:31:33;98610.88;;;32.13;42.87
8573;BME280;4324;42.012;24.872;2022-07-06T11:34:01;98599.56;;;32.05;43.06
8573;BME280;4324;42.012;24.872;2022-07-06T11:36:28;98598.16;;;32.17;43.19
8573;BME280;4324;42.012;24.872;2022-07-06T11:38:55;98591.75;;;32.30;42.68
8573;BME280;4324;42.012;24.872;2022-07-06T11:41:22;98601.25;;;32.33;42.34
8573;BME280;4324;42.012;24.872;2022-07-06T11:43:51;98608.03;;;32.35;42.22
8573;BME280;4324;42.012;24.872;2022-07-06T11:46:23;98608.97;;;32.22;42.08
8573;BME280;4324;42.012;24.872;2022-07-06T11:48:52;98595.06;;;32.10;41.64
8573;BME280;4324;42.012;24.872;2022-07-06T11:51:20;98605.50;;;31.99;41.69
8573;BME280;4324;42.012;24.872;2022-07-06T11:53:50;98592.28;;;31.92;42.06
8573;BME280;4324;42.012;24.872;2022-07-06T11:56:18;98594.88;;;31.97;42.38
8573;BME280;4324;42.012;24.872;2022-07-06T11:58:48;98587.94;;;32.00;42.05
8573;BME280;4324;42.012;24.872;2022-07-06T12:01:17;98590.22;;;31.98;42.07
8573;BME280;4324;42.012;24.872;2022-07-06T12:03:45;98583.78;;;32.11;41.69
8573;BME280;4324;42.012;24.872;2022-07-06T12:06:14;98578.66;;;32.18;41.21
8573;BME280;4324;42.012;24.872;2022-07-06T12:08:45;98564.84;;;32.23;41.51
8573;BME280;4324;42.012;24.872;2022-07-06T12:11:24;98573.22;;;32.36;41.15
8573;BME280;4324;42.012;24.872;2022-07-06T12:13:53;98573.28;;;32.53;41.18
8573;BME280;4324;42.012;24.872;2022-07-06T12:16:29;98569.41;;;32.54;40.89
8573;BME280;4324;42.012;24.872;2022-07-06T12:18:56;98573.91;;;32.50;40.58
8573;BME280;4324;42.012;24.872;2022-07-06T12:21:23;98576.03;;;32.53;40.76
8573;BME280;4324;42.012;24.872;2022-07-06T12:23:52;98581.50;;;32.53;40.73
8573;BME280;4324;42.012;24.872;2022-07-06T12:26:21;98572.31;;;32.49;40.74
8573;BME280;4324;42.012;24.872;2022-07-06T12:29:00;98577.78;;;32.49;40.58
8573;BME280;4324;42.012;24.872;2022-07-06T12:31:33;98569.41;;;32.54;40.50
8573;BME280;4324;42.012;24.872;2022-07-06T12:34:01;98561.69;;;32.56;40.38
8573;BME280;4324;42.012;24.872;2022-07-06T12:36:28;98554.25;;;32.83;40.30
8573;BME280;4324;42.012;24.872;2022-07-06T12:38:56;98556.19;;;33.08;39.67
8573;BME280;4324;42.012;24.872;2022-07-06T12:41:26;98554.66;;;33.37;39.54
8573;BME280;4324;42.012;24.872;2022-07-06T12:44:04;98545.41;;;33.59;39.02
8573;BME280;4324;42.012;24.872;2022-07-06T12:46:35;98549.91;;;33.63;38.72
8573;BME280;4324;42.012;24.872;2022-07-06T12:49:10;98551.25;;;33.57;38.93
8573;BME280;4324;42.012;24.872;2022-07-06T12:51:55;98541.44;;;33.39;38.80
8573;BME280;4324;42.012;24.872;2022-07-06T12:54:23;98548.09;;;33.20;38.82
8573;BME280;4324;42.012;24.872;2022-07-06T12:57:02;98546.81;;;33.09;38.72
8573;BME280;4324;42.012;24.872;2022-07-06T12:59:32;98545.22;;;32.99;38.86
8573;BME280;4324;42.012;24.872;2022-07-06T13:02:01;98544.91;;;33.01;38.89
8573;BME280;4324;42.012;24.872;2022-07-06T13:04:29;98538.09;;;33.07;38.75
8573;BME280;4324;42.012;24.872;2022-07-06T13:07:03;98526.19;;;33.03;38.53
8573;BME280;4324;42.012;24.872;2022-07-06T13:09:30;98537.91;;;33.21;38.20
8573;BME280;4324;42.012;24.872;2022-07-06T13:11:57;98535.44;;;33.37;38.19
8573;BME280;4324;42.012;24.872;2022-07-06T13:14:25;98513.50;;;33.37;37.94
8573;BME280;4324;42.012;24.872;2022-07-06T13:16:52;98532.47;;;33.59;37.74
8573;BME280;4324;42.012;24.872;2022-07-06T13:19:21;98531.22;;;33.57;37.50